sensor_id;sensor_type;location;lat;lon;timestamp;temperature;humidity
47857;DHT22;33618;49.972;8.242;2022-11-27T00:02:26;6.50;99.90
47857;DHT22;33618;49.972;8.242;2022-11-27T00:04:53;6.50;99.90
47857;DHT22;33618;49.972;8.242;2022-11-27T00:07:20;6.50;99.90
47857;DHT22;33618;49.972;8.242;2022-11-27T00:09:47;6.60;99.90
47857;DHT22;33618;49.972;8.242;2022-11-27T00:12:15;6.50;99.90
47857;DHT22;33618;49.972;8.242;2022-11-27T00:14:42;6.50;99.90
47857;DHT22;33618;49.972;8.242;2022-11-27T00:17:09;6.50;99.90
47857;DHT22;33618;49.972;8.242;2022-11-27T00:19:36;6.40;99.90
47857;DHT22;33618;49.972;8.242;2022-11-27T00:22:03;6.50;99.90
47857;DHT22;33618;49.972;8.242;2022-11-27T00:24:30;6.50;99.90
47857;DHT22;33618;49.972;8.242;2022-11-27T00:27:00;6.50;99.90
47857;DHT22;33618;49.972;8.242;2022-11-27T00:29:29;6.60;99.90
47857;DHT22;33618;49.972;8.242;2022-11-27T00:31:57;6.50;99.90
47857;DHT22;33618;49.972;8.242;2022-11-27T00:34:25;6.60;99.90
47857;DHT22;33618;49.972;8.242;2022-11-27T00:36:54;6.60;99.90
47857;DHT22;33618;49.972;8.242;2022-11-27T00:39:23;6.60;99.90
47857;DHT22;33618;49.972;8.242;2022-11-27T00:41:50;6.50;99.90
47857;DHT22;33618;49.972;8.242;2022-11-27T00:44:18;6.60;99.90
47857;DHT22;33618;49.972;8.242;2022-11-27T00:46:45;6.60;99.90
47857;DHT22;33618;49.972;8.242;2022-11-27T00:49:14;6.60;99.90
47857;DHT22;33618;49.972;8.242;2022-11-27T00:51:41;6.60;99.90
47857;DHT22;33618;49.972;8.242;2022-11-27T00:54:09;6.60;99.90
47857;DHT22;33618;49.972;8.242;2022-11-27T00:56:37;6.60;99.90
47857;DHT22;33618;49.972;8.242;2022-11-27T00:59:08;6.60;99.90
47857;DHT22;33618;49.972;8.242;2022-11-27T01:01:41;6.60;99.90
47857;DHT22;33618;49.972;8.242;2022-11-27T01:04:14;6.60;99.90
47857;DHT22;33618;49.972;8.242;2022-11-27T01:06:41;6.70;99.90
47857;DHT22;33618;49.972;8.242;2022-11-27T01:09:11;6.70;99.90
47857;DHT22;33618;49.972;8.242;2022-11-27T01:11:39;6.70;99.90
47857;DHT22;33618;49.972;8.242;2022-11-27T01:14:10;6.70;99.90
47857;DHT22;33618;49.972;8.242;2022-11-27T01:16:37;6.70;99.90
47857;DHT22;33618;49.972;8.242;2022-11-27T01:19:10;6.70;99.90
47857;DHT22;33618;49.972;8.242;2022-11-27T01:21:37;6.70;99.90
47857;DHT22;33618;49.972;8.242;2022-11-27T01:24:05;6.80;99.90
47857;DHT22;33618;49.972;8.242;2022-11-27T01:26:32;6.80;99.90
47857;DHT22;33618;49.972;8.242;2022-11-27T01:28:59;6.80;99.90
47857;DHT22;33618;49.972;8.242;2022-11-27T01:31:30;6.90;99.90
47857;DHT22;33618;49.972;8.242;2022-11-27T01:34:03;6.90;99.90
47857;DHT22;33618;49.972;8.242;2022-11-27T01:36:31;6.90;99.90
47857;DHT22;33618;49.972;8.242;2022-11-27T01:38:59;6.90;99.90
47857;DHT22;33618;49.972;8.242;2022-11-27T01:41:29;6.90;99.90
47857;DHT22;33618;49.972;8.242;2022-11-27T01:46:41;6.90;99.90
47857;DHT22;33618;49.972;8.242;2022-11-27T01:54:08;7.00;99.90
47857;DHT22;33618;49.972;8.242;2022-11-27T01:56:37;6.90;99.90
47857;DHT22;33618;49.972;8.242;2022-11-27T01:59:05;6.90;99.90
47857;DHT22;33618;49.972;8.242;2022-11-27T02:01:32;6.90;99.90
47857;DHT22;33618;49.972;8.242;2022-11-27T02:04:00;6.90;99.90
47857;DHT22;33618;49.972;8.242;2022-11-27T02:06:27;6.90;99.90
47857;DHT22;33618;49.972;8.242;2022-11-27T02:08:55;6.90;99.90
47857;DHT22;33618;49.972;8.242;2022-11-27T02:14:03;6.90;99.90
47857;DHT22;33618;49.972;8.242;2022-11-27T02:28:10;6.80;99.90
47857;DHT22;33618;49.972;8.242;2022-11-27T02:30:50;6.80;99.90
47857;DHT22;33618;49.972;8.242;2022-11-27T02:33:19;6.80;99.90
47857;DHT22;33618;49.972;8.242;2022-11-27T02:35:51;6.80;99.90
47857;DHT22;33618;49.972;8.242;2022-11-27T02:38:33;6.70;99.90
47857;DHT22;33618;49.972;8.242;2022-11-27T02:41:09;6.70;99.90
47857;DHT22;33618;49.972;8.242;2022-11-27T02:43:42;6.70;99.90
47857;DHT22;33618;49.972;8.242;2022-11-27T02:46:12;6.70;99.90
47857;DHT22;33618;49.972;8.242;2022-11-27T02:48:51;6.70;99.90
47857;DHT22;33618;49.972;8.242;2022-11-27T02:51:39;6.70;99.90
47857;DHT22;33618;49.972;8.242;2022-11-27T02:54:12;6.70;99.90
47857;DHT22;33618;49.972;8.242;2022-11-27T02:56:41;6.70;99.90
47857;DHT22;33618;49.972;8.242;2022-11-27T02:59:11;6.70;99.90
47857;DHT22;33618;49.972;8.242;2022-11-27T03:01:45;6.80;99.90
47857;DHT22;33618;49.972;8.242;2022-11-27T03:04:18;6.70;99.90
47857;DHT22;33618;49.972;8.242;2022-11-27T03:06:51;6.70;99.90
47857;DHT22;33618;49.972;8.242;2022-11-27T03:09:35;6.70;99.90
47857;DHT22;33618;49.972;8.242;2022-11-27T03:12:04;6.70;99.90
47857;DHT22;33618;49.972;8.242;2022-11-27T03:14:34;6.70;99.90
47857;DHT22;33618;49.972;8.242;2022-11-27T03:19:57;6.60;99.90
47857;DHT22;33618;49.972;8.242;2022-11-27T03:22:25;6.60;99.90
47857;DHT22;33618;49.972;8.242;2022-11-27T03:24:58;6.50;99.90
47857;DHT22;33618;49.972;8.242;2022-11-27T03:27:35;6.50;99.90
47857;DHT22;33618;49.972;8.242;2022-11-27T03:30:06;6.50;99.90
47857;DHT22;33618;49.972;8.242;2022-11-27T03:32:34;6.40;99.90
47857;DHT22;33618;49.972;8.242;2022-11-27T03:35:01;6.40;99.90
47857;DHT22;33618;49.972;8.242;2022-11-27T03:37:28;6.40;99.90
47857;DHT22;33618;49.972;8.242;2022-11-27T03:39:54;6.40;99.90
47857;DHT22;33618;49.972;8.242;2022-11-27T03:53:30;6.10;99.90
47857;DHT22;33618;49.972;8.242;2022-11-27T03:59:36;6.00;99.90
47857;DHT22;33618;49.972;8.242;2022-11-27T04:01:42;6.00;99.90
47857;DHT22;33618;49.972;8.242;2022-11-27T04:04:09;6.00;99.90
47857;DHT22;33618;49.972;8.242;2022-11-27T04:06:36;5.90;99.90
47857;DHT22;33618;49.972;8.242;2022-11-27T04:09:03;6.00;99.90
47857;DHT22;33618;49.972;8.242;2022-11-27T04:11:30;5.90;99.90
47857;DHT22;33618;49.972;8.242;2022-11-27T04:13:57;5.80;99.90
47857;DHT22;33618;49.972;8.242;2022-11-27T04:16:24;5.80;99.90
47857;DHT22;33618;49.972;8.242;2022-11-27T04:18:51;5.70;99.90
47857;DHT22;33618;49.972;8.242;2022-11-27T04:21:19;5.60;99.90
47857;DHT22;33618;49.972;8.242;2022-11-27T04:23:46;5.60;99.90
47857;DHT22;33618;49.972;8.242;2022-11-27T04:26:13;5.50;99.90
47857;DHT22;33618;49.972;8.242;2022-11-27T04:28:40;5.40;99.90
47857;DHT22;33618;49.972;8.242;2022-11-27T04:31:07;5.20;99.90
47857;DHT22;33618;49.972;8.242;2022-11-27T04:33:34;5.10;99.90
47857;DHT22;33618;49.972;8.242;2022-11-27T04:36:00;5.00;99.90
47857;DHT22;33618;49.972;8.242;2022-11-27T04:38:27;5.00;99.90
47857;DHT22;33618;49.972;8.242;2022-11-27T04:40:54;4.90;99.90
47857;DHT22;33618;49.972;8.242;2022-11-27T04:43:21;4.80;99.90
47857;DHT22;33618;49.972;8.242;2022-11-27T04:45:48;4.80;99.90
47857;DHT22;33618;49.972;8.242;2022-11-27T04:48:15;4.70;99.90
47857;DHT22;33618;49.972;8.242;2022-11-27T04:50:42;4.60;99.90
47857;DHT22;33618;49.972;8.242;2022-11-27T04:53:09;4.60;99.90
47857;DHT22;33618;49.972;8.242;2022-11-27T04:55:36;4.50;99.90
47857;DHT22;33618;49.972;8.242;2022-11-27T04:58:03;4.40;99.90
47857;DHT22;33618;49.972;8.242;2022-11-27T05:00:30;4.40;99.90
47857;DHT22;33618;49.972;8.242;2022-11-27T05:02:56;4.40;99.90
47857;DHT22;33618;49.972;8.242;2022-11-27T05:05:23;4.30;99.90
47857;DHT22;33618;49.972;8.242;2022-11-27T05:07:50;4.30;99.90
47857;DHT22;33618;49.972;8.242;2022-11-27T05:10:17;4.30;99.90
47857;DHT22;33618;49.972;8.242;2022-11-27T05:12:44;4.20;99.90
47857;DHT22;33618;49.972;8.242;2022-11-27T05:15:11;4.20;99.90
47857;DHT22;33618;49.972;8.242;2022-11-27T05:17:38;4.20;99.90
47857;DHT22;33618;49.972;8.242;2022-11-27T05:20:05;4.20;99.90
47857;DHT22;33618;49.972;8.242;2022-11-27T05:22:32;4.20;99.90
47857;DHT22;33618;49.972;8.242;2022-11-27T05:24:59;4.10;99.90
47857;DHT22;33618;49.972;8.242;2022-11-27T05:27:26;4.10;99.90
47857;DHT22;33618;49.972;8.242;2022-11-27T05:29:53;4.10;99.90
47857;DHT22;33618;49.972;8.242;2022-11-27T05:32:20;4.10;99.90
47857;DHT22;33618;49.972;8.242;2022-11-27T05:34:46;4.10;99.90
47857;DHT22;33618;49.972;8.242;2022-11-27T05:37:15;4.10;99.90
47857;DHT22;33618;49.972;8.242;2022-11-27T05:39:45;4.10;99.90
47857;DHT22;33618;49.972;8.242;2022-11-27T05:42:12;4.00;99.90
47857;DHT22;33618;49.972;8.242;2022-11-27T05:44:39;4.10;99.90
47857;DHT22;33618;49.972;8.242;2022-11-27T05:47:06;4.10;99.90
47857;DHT22;33618;49.972;8.242;2022-11-27T05:49:33;4.10;99.90
47857;DHT22;33618;49.972;8.242;2022-11-27T05:52:00;4.10;99.90
47857;DHT22;33618;49.972;8.242;2022-11-27T05:54:27;4.10;99.90
47857;DHT22;33618;49.972;8.242;2022-11-27T05:56:54;4.10;99.90
47857;DHT22;33618;49.972;8.242;2022-11-27T05:59:21;4.10;99.90
47857;DHT22;33618;49.972;8.242;2022-11-27T06:01:48;4.10;99.90
47857;DHT22;33618;49.972;8.242;2022-11-27T06:04:15;4.10;99.90
47857;DHT22;33618;49.972;8.242;2022-11-27T06:06:42;4.10;99.90
47857;DHT22;33618;49.972;8.242;2022-11-27T06:09:09;4.10;99.90
47857;DHT22;33618;49.972;8.242;2022-11-27T06:11:40;4.10;99.90
47857;DHT22;33618;49.972;8.242;2022-11-27T06:14:08;4.10;99.90
47857;DHT22;33618;49.972;8.242;2022-11-27T06:16:36;4.10;99.90
47857;DHT22;33618;49.972;8.242;2022-11-27T06:19:03;4.10;99.90
47857;DHT22;33618;49.972;8.242;2022-11-27T06:21:30;4.10;99.90
47857;DHT22;33618;49.972;8.242;2022-11-27T06:23:57;4.20;99.90
47857;DHT22;33618;49.972;8.242;2022-11-27T06:26:27;4.20;99.90
47857;DHT22;33618;49.972;8.242;2022-11-27T06:28:55;4.20;99.90
47857;DHT22;33618;49.972;8.242;2022-11-27T06:31:25;4.20;99.90
47857;DHT22;33618;49.972;8.242;2022-11-27T06:33:53;4.20;99.90
47857;DHT22;33618;49.972;8.242;2022-11-27T06:36:22;4.30;99.90
47857;DHT22;33618;49.972;8.242;2022-11-27T06:38:50;4.30;99.90
47857;DHT22;33618;49.972;8.242;2022-11-27T06:41:20;4.30;99.90
47857;DHT22;33618;49.972;8.242;2022-11-27T06:43:47;4.30;99.90
47857;DHT22;33618;49.972;8.242;2022-11-27T06:46:16;4.30;99.90
47857;DHT22;33618;49.972;8.242;2022-11-27T06:48:44;4.30;99.90
47857;DHT22;33618;49.972;8.242;2022-11-27T06:51:14;4.40;99.90
47857;DHT22;33618;49.972;8.242;2022-11-27T06:53:42;4.40;99.90
47857;DHT22;33618;49.972;8.242;2022-11-27T06:56:15;4.40;99.90
47857;DHT22;33618;49.972;8.242;2022-11-27T06:58:42;4.50;99.90
47857;DHT22;33618;49.972;8.242;2022-11-27T07:01:13;4.40;99.90
47857;DHT22;33618;49.972;8.242;2022-11-27T07:03:41;4.50;99.90
47857;DHT22;33618;49.972;8.242;2022-11-27T07:06:10;4.50;99.90
47857;DHT22;33618;49.972;8.242;2022-11-27T07:08:37;4.60;99.90
47857;DHT22;33618;49.972;8.242;2022-11-27T07:11:06;4.60;99.90
47857;DHT22;33618;49.972;8.242;2022-11-27T07:13:34;4.60;99.90
47857;DHT22;33618;49.972;8.242;2022-11-27T07:16:03;4.70;99.90
47857;DHT22;33618;49.972;8.242;2022-11-27T07:18:34;4.60;99.90
47857;DHT22;33618;49.972;8.242;2022-11-27T07:21:01;4.60;99.90
47857;DHT22;33618;49.972;8.242;2022-11-27T07:23:28;4.70;99.90
47857;DHT22;33618;49.972;8.242;2022-11-27T07:25:55;4.70;99.90
47857;DHT22;33618;49.972;8.242;2022-11-27T07:28:23;4.80;99.90
47857;DHT22;33618;49.972;8.242;2022-11-27T07:30:57;4.80;99.90
47857;DHT22;33618;49.972;8.242;2022-11-27T07:33:24;4.90;99.90
47857;DHT22;33618;49.972;8.242;2022-11-27T07:36:00;4.90;99.90
47857;DHT22;33618;49.972;8.242;2022-11-27T07:38:28;5.00;99.90
47857;DHT22;33618;49.972;8.242;2022-11-27T07:41:01;4.90;99.90
47857;DHT22;33618;49.972;8.242;2022-11-27T07:43:29;5.00;99.90
47857;DHT22;33618;49.972;8.242;2022-11-27T07:45:57;5.10;99.90
47857;DHT22;33618;49.972;8.242;2022-11-27T07:48:24;5.10;99.90
47857;DHT22;33618;49.972;8.242;2022-11-27T07:50:51;5.10;99.90
47857;DHT22;33618;49.972;8.242;2022-11-27T07:53:18;5.10;99.90
47857;DHT22;33618;49.972;8.242;2022-11-27T07:55:45;5.20;99.90
47857;DHT22;33618;49.972;8.242;2022-11-27T07:58:12;5.20;99.90
47857;DHT22;33618;49.972;8.242;2022-11-27T08:00:39;5.30;99.90
47857;DHT22;33618;49.972;8.242;2022-11-27T08:03:05;5.30;99.90
47857;DHT22;33618;49.972;8.242;2022-11-27T08:05:33;5.40;99.90
47857;DHT22;33618;49.972;8.242;2022-11-27T08:08:01;5.40;99.90
47857;DHT22;33618;49.972;8.242;2022-11-27T08:10:33;5.40;99.90
47857;DHT22;33618;49.972;8.242;2022-11-27T08:13:00;5.40;99.90
47857;DHT22;33618;49.972;8.242;2022-11-27T08:15:27;5.40;99.90
47857;DHT22;33618;49.972;8.242;2022-11-27T08:17:54;5.30;99.90
47857;DHT22;33618;49.972;8.242;2022-11-27T08:20:20;5.40;99.90
47857;DHT22;33618;49.972;8.242;2022-11-27T08:22:47;5.40;99.90
47857;DHT22;33618;49.972;8.242;2022-11-27T08:25:15;5.40;99.90
47857;DHT22;33618;49.972;8.242;2022-11-27T08:27:42;5.40;99.90
47857;DHT22;33618;49.972;8.242;2022-11-27T08:30:10;5.40;99.90
47857;DHT22;33618;49.972;8.242;2022-11-27T08:32:39;5.40;99.90
47857;DHT22;33618;49.972;8.242;2022-11-27T08:35:07;5.40;99.90
47857;DHT22;33618;49.972;8.242;2022-11-27T08:37:35;5.50;99.90
47857;DHT22;33618;49.972;8.242;2022-11-27T08:40:03;5.50;99.90
47857;DHT22;33618;49.972;8.242;2022-11-27T08:42:30;5.60;99.90
47857;DHT22;33618;49.972;8.242;2022-11-27T08:44:57;5.60;99.90
47857;DHT22;33618;49.972;8.242;2022-11-27T08:47:24;5.50;99.90
47857;DHT22;33618;49.972;8.242;2022-11-27T08:49:51;5.60;99.90
47857;DHT22;33618;49.972;8.242;2022-11-27T08:52:18;5.60;99.90
47857;DHT22;33618;49.972;8.242;2022-11-27T08:54:46;5.60;99.90
47857;DHT22;33618;49.972;8.242;2022-11-27T08:57:20;5.60;99.90
47857;DHT22;33618;49.972;8.242;2022-11-27T08:59:47;5.70;99.90
47857;DHT22;33618;49.972;8.242;2022-11-27T09:02:14;5.80;99.90
47857;DHT22;33618;49.972;8.242;2022-11-27T09:04:41;5.80;99.90
47857;DHT22;33618;49.972;8.242;2022-11-27T09:07:09;5.80;99.90
47857;DHT22;33618;49.972;8.242;2022-11-27T09:09:40;5.80;99.90
47857;DHT22;33618;49.972;8.242;2022-11-27T09:12:07;5.90;99.90
47857;DHT22;33618;49.972;8.242;2022-11-27T09:14:34;5.90;99.90
47857;DHT22;33618;49.972;8.242;2022-11-27T09:17:01;5.80;99.90
47857;DHT22;33618;49.972;8.242;2022-11-27T09:19:28;5.90;99.90
47857;DHT22;33618;49.972;8.242;2022-11-27T09:21:55;6.00;99.90
47857;DHT22;33618;49.972;8.242;2022-11-27T09:24:22;6.00;99.90
47857;DHT22;33618;49.972;8.242;2022-11-27T09:26:49;6.00;99.90
47857;DHT22;33618;49.972;8.242;2022-11-27T09:29:15;6.10;99.90
47857;DHT22;33618;49.972;8.242;2022-11-27T09:31:42;6.10;99.90
47857;DHT22;33618;49.972;8.242;2022-11-27T09:34:09;6.20;99.90
47857;DHT22;33618;49.972;8.242;2022-11-27T09:36:36;6.20;99.90
47857;DHT22;33618;49.972;8.242;2022-11-27T09:39:03;6.10;99.90
47857;DHT22;33618;49.972;8.242;2022-11-27T09:41:44;6.10;99.90
47857;DHT22;33618;49.972;8.242;2022-11-27T09:44:33;6.00;99.90
47857;DHT22;33618;49.972;8.242;2022-11-27T09:47:37;6.10;99.90
47857;DHT22;33618;49.972;8.242;2022-11-27T09:50:22;6.00;99.90
47857;DHT22;33618;49.972;8.242;2022-11-27T09:55:37;6.10;99.90
47857;DHT22;33618;49.972;8.242;2022-11-27T09:58:27;6.10;99.90
47857;DHT22;33618;49.972;8.242;2022-11-27T10:00:57;6.20;99.90
47857;DHT22;33618;49.972;8.242;2022-11-27T10:03:25;6.20;99.90
47857;DHT22;33618;49.972;8.242;2022-11-27T10:06:02;6.00;99.90
47857;DHT22;33618;49.972;8.242;2022-11-27T10:11:47;6.00;99.90
47857;DHT22;33618;49.972;8.242;2022-11-27T10:17:39;5.90;99.90
47857;DHT22;33618;49.972;8.242;2022-11-27T10:20:31;5.90;99.90
47857;DHT22;33618;49.972;8.242;2022-11-27T10:23:04;5.90;99.90
47857;DHT22;33618;49.972;8.242;2022-11-27T10:28:17;6.10;99.90
47857;DHT22;33618;49.972;8.242;2022-11-27T10:30:55;6.00;99.90
47857;DHT22;33618;49.972;8.242;2022-11-27T10:33:36;6.00;99.90
47857;DHT22;33618;49.972;8.242;2022-11-27T10:36:08;6.00;99.90
47857;DHT22;33618;49.972;8.242;2022-11-27T10:38:38;6.20;99.90
47857;DHT22;33618;49.972;8.242;2022-11-27T10:41:08;6.20;99.90
47857;DHT22;33618;49.972;8.242;2022-11-27T10:43:59;6.10;99.90
47857;DHT22;33618;49.972;8.242;2022-11-27T10:46:31;6.20;99.90
47857;DHT22;33618;49.972;8.242;2022-11-27T10:49:00;6.10;99.90
47857;DHT22;33618;49.972;8.242;2022-11-27T10:51:32;6.20;99.90
47857;DHT22;33618;49.972;8.242;2022-11-27T10:54:00;6.20;99.90
47857;DHT22;33618;49.972;8.242;2022-11-27T10:56:54;6.20;99.90
47857;DHT22;33618;49.972;8.242;2022-11-27T10:59:29;6.20;99.90
47857;DHT22;33618;49.972;8.242;2022-11-27T11:02:00;6.20;99.90
47857;DHT22;33618;49.972;8.242;2022-11-27T11:04:30;6.20;99.90
47857;DHT22;33618;49.972;8.242;2022-11-27T11:07:22;6.30;99.90
47857;DHT22;33618;49.972;8.242;2022-11-27T11:09:51;6.30;99.90
47857;DHT22;33618;49.972;8.242;2022-11-27T11:12:20;6.30;99.90
47857;DHT22;33618;49.972;8.242;2022-11-27T11:14:58;6.30;99.90
47857;DHT22;33618;49.972;8.242;2022-11-27T11:17:30;6.30;99.90
47857;DHT22;33618;49.972;8.242;2022-11-27T11:20:20;6.50;99.90
47857;DHT22;33618;49.972;8.242;2022-11-27T11:22:48;6.60;99.90
47857;DHT22;33618;49.972;8.242;2022-11-27T11:25:20;6.70;99.90
47857;DHT22;33618;49.972;8.242;2022-11-27T11:27:49;6.80;99.90
47857;DHT22;33618;49.972;8.242;2022-11-27T11:30:25;6.90;99.90
47857;DHT22;33618;49.972;8.242;2022-11-27T11:33:01;6.90;99.90
47857;DHT22;33618;49.972;8.242;2022-11-27T11:35:34;7.10;99.90
47857;DHT22;33618;49.972;8.242;2022-11-27T11:38:14;7.30;99.90
47857;DHT22;33618;49.972;8.242;2022-11-27T11:40:42;7.20;99.90
47857;DHT22;33618;49.972;8.242;2022-11-27T11:43:33;7.20;99.90
47857;DHT22;33618;49.972;8.242;2022-11-27T11:46:05;7.30;99.90
47857;DHT22;33618;49.972;8.242;2022-11-27T11:48:34;7.30;99.90
47857;DHT22;33618;49.972;8.242;2022-11-27T11:51:15;7.20;99.90
47857;DHT22;33618;49.972;8.242;2022-11-27T11:54:35;7.20;99.90
47857;DHT22;33618;49.972;8.242;2022-11-27T11:56:51;7.30;99.90
47857;DHT22;33618;49.972;8.242;2022-11-27T11:59:49;7.00;99.90
47857;DHT22;33618;49.972;8.242;2022-11-27T12:02:38;7.00;99.90
47857;DHT22;33618;49.972;8.242;2022-11-27T12:25:02;7.70;99.90
47857;DHT22;33618;49.972;8.242;2022-11-27T12:30:22;7.50;99.90
47857;DHT22;33618;49.972;8.242;2022-11-27T12:41:54;7.60;99.90
47857;DHT22;33618;49.972;8.242;2022-11-27T12:47:08;7.60;99.90
47857;DHT22;33618;49.972;8.242;2022-11-27T12:49:43;7.60;99.90
47857;DHT22;33618;49.972;8.242;2022-11-27T12:52:18;7.60;99.90
47857;DHT22;33618;49.972;8.242;2022-11-27T12:55:04;7.50;99.90
47857;DHT22;33618;49.972;8.242;2022-11-27T13:00:26;7.60;99.90
47857;DHT22;33618;49.972;8.242;2022-11-27T13:03:01;7.50;99.90
47857;DHT22;33618;49.972;8.242;2022-11-27T13:05:46;7.50;99.90
47857;DHT22;33618;49.972;8.242;2022-11-27T13:08:17;7.50;99.90
47857;DHT22;33618;49.972;8.242;2022-11-27T13:11:05;7.50;99.90
47857;DHT22;33618;49.972;8.242;2022-11-27T13:13:41;7.40;99.90
47857;DHT22;33618;49.972;8.242;2022-11-27T13:16:25;7.30;99.90
47857;DHT22;33618;49.972;8.242;2022-11-27T13:19:04;7.30;99.90
47857;DHT22;33618;49.972;8.242;2022-11-27T13:21:33;7.20;99.90
47857;DHT22;33618;49.972;8.242;2022-11-27T13:24:01;7.20;99.90
47857;DHT22;33618;49.972;8.242;2022-11-27T13:26:35;7.20;99.90
47857;DHT22;33618;49.972;8.242;2022-11-27T13:31:57;6.90;99.90
47857;DHT22;33618;49.972;8.242;2022-11-27T13:34:27;6.90;99.90
47857;DHT22;33618;49.972;8.242;2022-11-27T13:37:01;7.00;99.90
47857;DHT22;33618;49.972;8.242;2022-11-27T13:42:05;7.00;99.90
47857;DHT22;33618;49.972;8.242;2022-11-27T13:44:37;6.90;99.90
47857;DHT22;33618;49.972;8.242;2022-11-27T13:47:16;6.80;99.90
47857;DHT22;33618;49.972;8.242;2022-11-27T13:49:44;6.80;99.90
47857;DHT22;33618;49.972;8.242;2022-11-27T13:52:15;6.80;99.90
47857;DHT22;33618;49.972;8.242;2022-11-27T13:55:11;6.80;99.90
47857;DHT22;33618;49.972;8.242;2022-11-27T13:57:52;6.90;99.90
47857;DHT22;33618;49.972;8.242;2022-11-27T14:02:57;6.80;99.90
47857;DHT22;33618;49.972;8.242;2022-11-27T14:05:42;6.80;99.90
47857;DHT22;33618;49.972;8.242;2022-11-27T14:08:34;6.80;99.90
47857;DHT22;33618;49.972;8.242;2022-11-27T14:11:07;6.80;99.90
47857;DHT22;33618;49.972;8.242;2022-11-27T14:13:38;6.80;99.90
47857;DHT22;33618;49.972;8.242;2022-11-27T14:18:56;6.80;99.90
47857;DHT22;33618;49.972;8.242;2022-11-27T14:24:35;6.80;99.90
47857;DHT22;33618;49.972;8.242;2022-11-27T14:27:13;6.70;99.90
47857;DHT22;33618;49.972;8.242;2022-11-27T14:29:42;6.60;99.90
47857;DHT22;33618;49.972;8.242;2022-11-27T14:32:11;6.60;99.90
47857;DHT22;33618;49.972;8.242;2022-11-27T14:34:39;6.60;99.90
47857;DHT22;33618;49.972;8.242;2022-11-27T14:37:19;6.50;99.90
47857;DHT22;33618;49.972;8.242;2022-11-27T14:39:47;6.50;99.90
47857;DHT22;33618;49.972;8.242;2022-11-27T14:42:32;6.40;99.90
47857;DHT22;33618;49.972;8.242;2022-11-27T14:45:11;6.40;99.90
47857;DHT22;33618;49.972;8.242;2022-11-27T14:47:46;6.40;99.90
47857;DHT22;33618;49.972;8.242;2022-11-27T14:50:13;6.40;99.90
47857;DHT22;33618;49.972;8.242;2022-11-27T14:52:44;6.30;99.90
47857;DHT22;33618;49.972;8.242;2022-11-27T14:55:16;6.30;99.90
47857;DHT22;33618;49.972;8.242;2022-11-27T14:57:44;6.20;99.90
47857;DHT22;33618;49.972;8.242;2022-11-27T15:00:23;6.20;99.90
47857;DHT22;33618;49.972;8.242;2022-11-27T15:02:53;6.30;99.90
47857;DHT22;33618;49.972;8.242;2022-11-27T15:05:23;6.30;99.90
47857;DHT22;33618;49.972;8.242;2022-11-27T15:07:56;6.30;99.90
47857;DHT22;33618;49.972;8.242;2022-11-27T15:12:53;6.30;99.90
47857;DHT22;33618;49.972;8.242;2022-11-27T15:15:23;6.20;99.90
47857;DHT22;33618;49.972;8.242;2022-11-27T15:18:00;6.20;99.90
47857;DHT22;33618;49.972;8.242;2022-11-27T15:20:38;6.20;99.90
47857;DHT22;33618;49.972;8.242;2022-11-27T15:23:24;6.20;99.90
47857;DHT22;33618;49.972;8.242;2022-11-27T15:28:34;6.20;99.90
47857;DHT22;33618;49.972;8.242;2022-11-27T15:31:20;6.10;99.90
47857;DHT22;33618;49.972;8.242;2022-11-27T15:39:26;6.10;99.90
47857;DHT22;33618;49.972;8.242;2022-11-27T15:41:59;6.00;99.90
47857;DHT22;33618;49.972;8.242;2022-11-27T15:44:29;6.00;99.90
47857;DHT22;33618;49.972;8.242;2022-11-27T15:46:58;6.00;99.90
47857;DHT22;33618;49.972;8.242;2022-11-27T15:49:26;5.90;99.90
47857;DHT22;33618;49.972;8.242;2022-11-27T15:51:55;5.90;99.90
47857;DHT22;33618;49.972;8.242;2022-11-27T15:54:23;5.70;99.90
47857;DHT22;33618;49.972;8.242;2022-11-27T15:56:50;5.70;99.90
47857;DHT22;33618;49.972;8.242;2022-11-27T15:59:17;5.70;99.90
47857;DHT22;33618;49.972;8.242;2022-11-27T16:01:46;5.80;99.90
47857;DHT22;33618;49.972;8.242;2022-11-27T16:04:15;5.80;99.90
47857;DHT22;33618;49.972;8.242;2022-11-27T16:06:42;5.80;99.90
47857;DHT22;33618;49.972;8.242;2022-11-27T16:09:09;5.80;99.90
47857;DHT22;33618;49.972;8.242;2022-11-27T16:11:36;5.70;99.90
47857;DHT22;33618;49.972;8.242;2022-11-27T16:14:03;5.80;99.90
47857;DHT22;33618;49.972;8.242;2022-11-27T16:16:30;5.80;99.90
47857;DHT22;33618;49.972;8.242;2022-11-27T16:19:01;5.90;99.90
47857;DHT22;33618;49.972;8.242;2022-11-27T16:21:30;5.90;99.90
47857;DHT22;33618;49.972;8.242;2022-11-27T16:24:07;5.90;99.90
47857;DHT22;33618;49.972;8.242;2022-11-27T16:26:35;5.90;99.90
47857;DHT22;33618;49.972;8.242;2022-11-27T16:29:05;5.90;99.90
47857;DHT22;33618;49.972;8.242;2022-11-27T16:31:32;5.90;99.90
47857;DHT22;33618;49.972;8.242;2022-11-27T16:33:59;5.90;99.90
47857;DHT22;33618;49.972;8.242;2022-11-27T16:36:28;5.80;99.90
47857;DHT22;33618;49.972;8.242;2022-11-27T16:38:55;5.80;99.90
47857;DHT22;33618;49.972;8.242;2022-11-27T16:41:23;5.80;99.90
47857;DHT22;33618;49.972;8.242;2022-11-27T16:43:53;5.90;99.90
47857;DHT22;33618;49.972;8.242;2022-11-27T16:46:25;5.80;99.90
47857;DHT22;33618;49.972;8.242;2022-11-27T16:48:53;5.90;99.90
47857;DHT22;33618;49.972;8.242;2022-11-27T16:51:23;5.90;99.90
47857;DHT22;33618;49.972;8.242;2022-11-27T16:53:53;5.90;99.90
47857;DHT22;33618;49.972;8.242;2022-11-27T16:56:22;5.90;99.90
47857;DHT22;33618;49.972;8.242;2022-11-27T16:58:50;5.80;99.90
47857;DHT22;33618;49.972;8.242;2022-11-27T17:01:20;5.80;99.90
47857;DHT22;33618;49.972;8.242;2022-11-27T17:03:47;5.80;99.90
47857;DHT22;33618;49.972;8.242;2022-11-27T17:06:21;5.80;99.90
47857;DHT22;33618;49.972;8.242;2022-11-27T17:08:48;5.80;99.90
47857;DHT22;33618;49.972;8.242;2022-11-27T17:11:17;5.80;99.90
47857;DHT22;33618;49.972;8.242;2022-11-27T17:13:47;5.90;99.90
47857;DHT22;33618;49.972;8.242;2022-11-27T17:16:14;5.80;99.90
47857;DHT22;33618;49.972;8.242;2022-11-27T17:18:43;5.80;99.90
47857;DHT22;33618;49.972;8.242;2022-11-27T17:23:46;5.80;99.90
47857;DHT22;33618;49.972;8.242;2022-11-27T17:26:16;5.80;99.90
47857;DHT22;33618;49.972;8.242;2022-11-27T17:28:44;5.80;99.90
47857;DHT22;33618;49.972;8.242;2022-11-27T17:31:18;5.90;99.90
47857;DHT22;33618;49.972;8.242;2022-11-27T17:33:45;5.90;99.90
47857;DHT22;33618;49.972;8.242;2022-11-27T17:36:14;5.80;99.90
47857;DHT22;33618;49.972;8.242;2022-11-27T17:38:41;5.80;99.90
47857;DHT22;33618;49.972;8.242;2022-11-27T17:41:10;5.80;99.90
47857;DHT22;33618;49.972;8.242;2022-11-27T17:43:38;5.80;99.90
47857;DHT22;33618;49.972;8.242;2022-11-27T17:46:12;5.70;99.90
47857;DHT22;33618;49.972;8.242;2022-11-27T17:48:41;5.80;99.90
47857;DHT22;33618;49.972;8.242;2022-11-27T17:51:08;5.80;99.90
47857;DHT22;33618;49.972;8.242;2022-11-27T17:53:36;5.80;99.90
47857;DHT22;33618;49.972;8.242;2022-11-27T17:56:05;5.80;99.90
47857;DHT22;33618;49.972;8.242;2022-11-27T17:58:33;5.80;99.90
47857;DHT22;33618;49.972;8.242;2022-11-27T18:01:00;5.90;99.90
47857;DHT22;33618;49.972;8.242;2022-11-27T18:03:28;6.00;99.90